Time;durP1;ratioP1;P1;durP2;ratioP2;P2;SDS_P1;SDS_P2;PMS_P1;PMS_P2;Temp;Humidity;BMP_temperature;BMP_pressure;BME280_temperature;BME280_humidity;BME280_pressure;Samples;Min_cycle;Max_cycle;Signal;HPM_P1;HPM_P2
2022/09/05 00:02:02;;;;;;;30.00;16.80;;;18.70;91.00;;;;;;4934789;29;20487;-72
2022/09/05 00:05:06;;;;;;;25.10;14.23;;;18.60;90.80;;;;;;4918649;29;20087;-72
2022/09/05 00:07:54;;;;;;;24.63;12.73;;;18.60;91.20;;;;;;4934637;29;20531;-73
2022/09/05 00:10:51;;;;;;;23.85;12.82;;;18.60;91.30;;;;;;4921878;29;20043;-70
2022/09/05 00:13:22;;;;;;;21.10;12.55;;;18.50;91.20;;;;;;4937764;29;20051;-71
2022/09/05 00:16:09;;;;;;;20.08;11.30;;;18.50;91.20;;;;;;4940819;29;20519;-73
2022/09/05 00:18:55;;;;;;;20.73;12.23;;;18.40;91.40;;;;;;4941589;29;20400;-71
2022/09/05 00:21:27;;;;;;;22.10;12.52;;;18.40;91.40;;;;;;4957814;29;20105;-71
2022/09/05 00:24:05;;;;;;;20.77;12.07;;;18.40;91.30;;;;;;4957670;29;20062;-71
2022/09/05 00:26:41;;;;;;;24.17;12.98;;;18.40;91.40;;;;;;4958023;29;20098;-72
2022/09/05 00:29:31;;;;;;;23.30;12.32;;;18.40;91.40;;;;;;4940553;29;20055;-72
2022/09/05 00:32:30;;;;;;;20.70;11.65;;;18.40;91.80;;;;;;4940004;29;20484;-72
2022/09/05 00:35:02;;;;;;;23.40;12.20;;;18.30;91.70;;;;;;4938136;29;20552;-72
2022/09/05 00:37:41;;;;;;;28.70;12.20;;;18.30;91.70;;;;;;4925110;29;20051;-71
2022/09/05 00:40:15;;;;;;;20.35;12.35;;;18.20;91.90;;;;;;4957410;29;20086;-72
2022/09/05 00:42:43;;;;;;;23.17;12.88;;;18.20;92.10;;;;;;4957667;29;20361;-72
2022/09/05 00:45:15;;;;;;;25.17;13.23;;;18.20;91.80;;;;;;4924339;29;20055;-71
2022/09/05 00:48:00;;;;;;;20.63;12.43;;;18.20;92.00;;;;;;4957192;29;20113;-72
2022/09/05 00:51:13;;;;;;;24.17;12.82;;;18.10;92.40;;;;;;4957123;29;20050;-71
2022/09/05 00:54:03;;;;;;;22.77;13.30;;;18.10;92.40;;;;;;4922191;29;20067;-72
2022/09/05 00:56:56;;;;;;;21.58;13.18;;;18.10;92.40;;;;;;4957819;29;20047;-72
2022/09/05 00:59:51;;;;;;;24.70;13.30;;;18.10;92.40;;;;;;4957160;29;20047;-72
2022/09/05 01:02:41;;;;;;;23.08;13.05;;;18.00;92.60;;;;;;4957668;29;20050;-75
2022/09/05 01:05:19;;;;;;;23.65;14.00;;;18.00;92.60;;;;;;4940509;29;20051;-72
2022/09/05 01:08:05;;;;;;;22.90;14.35;;;17.90;92.60;;;;;;4956452;29;20055;-71
2022/09/05 01:10:49;;;;;;;27.80;13.93;;;17.90;92.40;;;;;;4957262;28;20051;-71
2022/09/05 01:13:43;;;;;;;20.92;13.50;;;17.90;92.50;;;;;;4924459;29;20391;-80
2022/09/05 01:16:19;;;;;;;23.70;13.93;;;17.80;92.80;;;;;;4956609;29;20051;-73
2022/09/05 01:18:56;;;;;;;25.85;14.30;;;17.80;92.70;;;;;;4957245;29;20105;-73
2022/09/05 01:21:39;;;;;;;26.17;13.80;;;17.80;92.80;;;;;;4924117;29;20142;-71
2022/09/05 01:24:26;;;;;;;24.63;14.18;;;17.80;92.80;;;;;;4956657;29;20047;-71
2022/09/05 01:27:29;;;;;;;29.27;14.20;;;17.70;92.90;;;;;;4956264;29;20190;-71
2022/09/05 01:30:04;;;;;;;24.73;14.75;;;17.70;93.20;;;;;;4939859;29;20054;-74
2022/09/05 01:32:59;;;;;;;24.27;14.27;;;17.60;93.00;;;;;;4939259;29;20051;-73
2022/09/05 01:35:40;;;;;;;24.27;14.57;;;17.60;93.50;;;;;;4956295;29;20047;-77
2022/09/05 01:38:31;;;;;;;27.67;15.82;;;17.60;93.20;;;;;;4956452;29;20055;-72
2022/09/05 01:41:20;;;;;;;27.38;14.60;;;17.60;93.40;;;;;;4957006;29;20047;-75
2022/09/05 01:44:09;;;;;;;27.50;15.48;;;17.50;93.30;;;;;;4956988;28;20051;-72
2022/09/05 01:46:53;;;;;;;29.67;15.65;;;17.50;93.70;;;;;;4923258;29;20416;-72
2022/09/05 01:49:28;;;;;;;25.55;14.90;;;17.50;93.40;;;;;;4939754;29;20389;-75
2022/09/05 01:52:15;;;;;;;24.08;15.48;;;17.40;93.60;;;;;;4939124;29;20454;-72
2022/09/05 01:55:00;;;;;;;25.63;15.27;;;17.40;93.70;;;;;;4956882;28;20055;-72
2022/09/05 01:57:49;;;;;;;26.33;15.40;;;17.30;94.20;;;;;;4939246;28;20055;-72
2022/09/05 02:00:23;;;;;;;27.02;14.95;;;17.30;94.30;;;;;;4955811;28;20047;-72
2022/09/05 02:03:07;;;;;;;25.15;16.20;;;17.30;93.90;;;;;;4956058;29;20043;-72
2022/09/05 02:05:35;;;;;;;26.95;16.08;;;17.20;94.40;;;;;;4956284;29;20062;-70
2022/09/05 02:08:17;;;;;;;26.88;15.55;;;17.20;94.20;;;;;;4939020;29;20134;-72
2022/09/05 02:11:04;;;;;;;28.95;16.13;;;17.20;94.30;;;;;;4955948;29;20435;-72
2022/09/05 02:13:33;;;;;;;27.08;15.48;;;17.10;94.80;;;;;;4939041;29;20058;-72
2022/09/05 02:16:07;;;;;;;25.45;15.65;;;17.10;94.50;;;;;;4923576;29;20047;-76
2022/09/05 02:18:35;;;;;;;23.92;16.00;;;17.10;94.70;;;;;;4957046;29;20063;-72
2022/09/05 02:21:08;;;;;;;26.98;16.30;;;17.00;94.70;;;;;;4939504;29;20526;-73
2022/09/05 02:23:45;;;;;;;27.17;16.20;;;17.00;94.70;;;;;;4956505;28;20059;-72
2022/09/05 02:26:14;;;;;;;;;;;17.00;95.00;;;;;;4957020;29;20039;-72
2022/09/05 02:28:59;;;;;;;25.45;15.57;;;17.00;95.50;;;;;;4956903;29;19922;-72
2022/09/05 02:31:37;;;;;;;28.65;16.33;;;16.90;95.10;;;;;;4956448;29;20051;-71
2022/09/05 02:34:20;;;;;;;32.78;16.48;;;16.90;95.00;;;;;;4958413;29;20051;-71
2022/09/05 02:37:00;;;;;;;31.58;16.45;;;16.80;95.30;;;;;;4959478;28;20043;-70
2022/09/05 02:39:45;;;;;;;29.88;16.75;;;16.80;95.10;;;;;;4958680;29;20113;-71
2022/09/05 02:42:23;;;;;;;33.17;17.42;;;16.80;95.30;;;;;;4941978;29;20070;-72
2022/09/05 02:45:08;;;;;;;28.70;16.58;;;16.70;95.20;;;;;;4957934;29;20062;-71
2022/09/05 02:48:10;;;;;;;29.20;17.05;;;16.70;95.20;;;;;;4941183;29;20078;-71
2022/09/05 02:50:48;;;;;;;29.15;16.85;;;16.70;95.80;;;;;;4957224;29;20043;-71
2022/09/05 02:53:17;;;;;;;30.98;17.85;;;16.60;95.40;;;;;;4958528;29;20063;-75
2022/09/05 02:56:12;;;;;;;27.67;17.45;;;16.60;95.50;;;;;;4940246;29;20054;-73
2022/09/05 02:58:46;;;;;;;33.00;18.00;;;16.60;95.70;;;;;;4941105;29;20053;-70
2022/09/05 03:01:26;;;;;;;35.08;17.98;;;16.50;95.50;;;;;;4958660;29;20051;-71
2022/09/05 03:04:14;;;;;;;32.63;17.65;;;16.50;95.80;;;;;;4925081;29;20048;-71
2022/09/05 03:06:43;;;;;;;30.23;17.95;;;16.50;96.30;;;;;;4957174;29;20043;-71
2022/09/05 03:09:28;;;;;;;35.67;18.45;;;16.40;96.00;;;;;;4955965;29;20067;-70
2022/09/05 03:12:35;;;;;;;32.97;18.80;;;16.40;96.50;;;;;;4940430;29;20082;-72
2022/09/05 03:15:12;;;;;;;30.38;18.13;;;16.30;96.80;;;;;;4895993;29;20056;-71
2022/09/05 03:18:18;;;;;;;33.63;18.65;;;16.40;96.40;;;;;;4896152;29;20194;-71
2022/09/05 03:21:13;;;;;;;35.72;19.00;;;16.40;96.60;;;;;;4944845;29;20426;-72
2022/09/05 03:24:20;;;;;;;30.60;17.80;;;16.30;96.70;;;;;;4958203;29;20087;-72
2022/09/05 03:27:41;;;;;;;36.72;19.52;;;16.30;96.90;;;;;;4914412;29;20318;-76
2022/09/05 03:30:11;;;;;;;33.50;18.63;;;16.30;96.90;;;;;;4897609;29;20048;-73
2022/09/05 03:32:54;;;;;;;31.88;18.70;;;16.30;96.70;;;;;;4929125;29;20114;-72
2022/09/05 03:35:36;;;;;;;32.17;18.33;;;16.20;96.70;;;;;;4938490;29;20044;-71
2022/09/05 03:38:32;;;;;;;32.45;19.30;;;16.20;97.30;;;;;;4940177;29;20055;-71
2022/09/05 03:41:09;;;;;;;34.35;19.95;;;16.20;97.60;;;;;;4956377;29;20047;-78
2022/09/05 03:43:56;;;;;;;35.47;19.02;;;16.10;97.50;;;;;;4956055;29;20054;-72
2022/09/05 03:46:25;;;;;;;33.25;18.88;;;16.10;98.30;;;;;;4940161;29;20054;-72
2022/09/05 03:49:12;;;;;;;35.33;18.92;;;16.10;98.10;;;;;;4941969;29;20051;-72
2022/09/05 03:51:47;;;;;;;33.60;19.67;;;16.00;98.40;;;;;;4942725;28;20055;-71
2022/09/05 03:54:27;;;;;;;33.55;20.17;;;16.00;98.30;;;;;;4942347;29;20055;-71
2022/09/05 03:57:20;;;;;;;36.60;20.25;;;16.00;98.50;;;;;;4942013;29;20150;-70
2022/09/05 03:59:58;;;;;;;35.58;19.95;;;16.00;98.80;;;;;;4958434;29;20044;-71
2022/09/05 04:02:29;;;;;;;34.92;20.88;;;15.90;98.60;;;;;;4958776;29;20059;-71
2022/09/05 04:05:20;;;;;;;36.53;20.35;;;15.90;98.60;;;;;;4958727;29;20388;-71
2022/09/05 04:07:53;;;;;;;33.22;19.10;;;16.00;99.00;;;;;;4959677;29;20055;-71
2022/09/05 04:10:28;;;;;;;33.00;20.02;;;15.90;98.80;;;;;;4960222;29;20110;-71
2022/09/05 04:13:21;;;;;;;33.72;20.15;;;15.90;99.00;;;;;;4959716;29;20094;-71
2022/09/05 04:15:59;;;;;;;36.15;21.13;;;15.90;99.00;;;;;;4960071;29;20051;-72
2022/09/05 04:18:39;;;;;;;34.38;20.88;;;15.90;98.90;;;;;;4943409;29;20055;-71
2022/09/05 04:21:22;;;;;;;36.97;20.45;;;15.90;99.30;;;;;;4942905;29;20416;-71
2022/09/05 04:23:59;;;;;;;39.70;20.33;;;15.80;99.30;;;;;;4943451;29;20457;-71
2022/09/05 04:27:03;;;;;;;38.70;21.48;;;15.80;99.30;;;;;;4960833;29;20051;-71
2022/09/05 04:29:50;;;;;;;41.35;21.00;;;15.80;99.60;;;;;;4959314;28;20047;-71
2022/09/05 04:32:28;;;;;;;36.38;20.50;;;15.80;99.40;;;;;;4942652;29;20476;-72
2022/09/05 04:35:25;;;;;;;41.63;20.85;;;15.80;99.60;;;;;;4942771;29;20054;-72
2022/09/05 04:38:04;;;;;;;;;;;15.80;99.70;;;;;;4942521;29;20138;-71
2022/09/05 04:40:44;;;;;;;33.92;20.77;;;15.70;99.90;;;;;;4959357;29;19922;-71
2022/09/05 04:43:39;;;;;;;38.88;21.08;;;15.70;99.90;;;;;;4958394;29;20174;-72
2022/09/05 04:46:22;;;;;;;38.83;21.85;;;15.70;99.90;;;;;;4958254;29;20496;-72
2022/09/05 04:49:09;;;;;;;33.70;21.17;;;15.70;99.90;;;;;;4940560;29;20043;-71
2022/09/05 04:52:10;;;;;;;37.22;21.50;;;15.60;99.90;;;;;;4958444;29;20047;-73
2022/09/05 04:54:49;;;;;;;36.22;21.58;;;15.60;99.90;;;;;;4924846;29;20056;-71
2022/09/05 04:57:28;;;;;;;38.53;22.05;;;15.60;99.90;;;;;;4940569;29;20079;-76
2022/09/05 05:00:07;;;;;;;38.30;21.55;;;15.60;99.90;;;;;;4958271;28;20396;-72
2022/09/05 05:02:37;;;;;;;42.28;22.40;;;15.60;99.90;;;;;;4942448;29;20053;-72
2022/09/05 05:05:18;;;;;;;40.30;21.73;;;15.60;99.90;;;;;;4926642;29;20428;-71
2022/09/05 05:07:52;;;;;;;38.35;21.98;;;15.60;99.90;;;;;;4927163;29;20043;-71
2022/09/05 05:10:27;;;;;;;45.63;22.58;;;15.60;99.90;;;;;;4958876;28;20134;-70
2022/09/05 05:13:14;;;;;;;39.05;22.45;;;15.60;99.90;;;;;;4926718;29;20054;-71
2022/09/05 05:15:50;;;;;;;;;;;15.60;99.90;;;;;;4960734;29;20058;-70
2022/09/05 05:18:29;;;;;;;40.78;21.73;;;15.60;99.90;;;;;;4942673;29;20356;-71
2022/09/05 05:21:04;;;;;;;36.88;22.30;;;15.70;99.90;;;;;;4926293;29;20130;-72
2022/09/05 05:23:38;;;;;;;38.40;23.17;;;15.60;99.90;;;;;;4958482;29;20137;-71
2022/09/05 05:26:08;;;;;;;38.88;21.88;;;15.70;99.90;;;;;;4957272;28;20047;-70
2022/09/05 05:28:46;;;;;;;44.17;22.42;;;15.70;99.90;;;;;;4924766;29;20063;-72
2022/09/05 05:31:19;;;;;;;42.67;22.75;;;15.70;99.90;;;;;;4925566;29;20062;-71
2022/09/05 05:33:48;;;;;;;39.53;22.13;;;15.70;99.90;;;;;;4941316;29;20470;-73
2022/09/05 05:36:26;;;;;;;40.63;22.38;;;15.70;99.90;;;;;;4940552;29;20130;-71
2022/09/05 05:38:56;;;;;;;45.58;22.83;;;15.70;99.90;;;;;;4940342;29;20471;-71
2022/09/05 05:41:38;;;;;;;38.10;21.95;;;15.80;99.90;;;;;;4957981;29;20538;-72
2022/09/05 05:44:32;;;;;;;38.90;22.23;;;15.80;99.90;;;;;;4925445;29;20472;-71
2022/09/05 05:47:00;;;;;;;38.50;22.92;;;15.90;99.90;;;;;;4956326;29;20059;-71
2022/09/05 05:49:30;;;;;;;44.80;23.80;;;15.90;99.90;;;;;;4956764;29;20050;-71
2022/09/05 05:52:37;;;;;;;37.15;22.33;;;16.00;99.90;;;;;;4956409;29;20424;-73
2022/09/05 05:55:15;;;;;;;42.88;23.25;;;16.00;99.90;;;;;;4955934;29;20490;-72
2022/09/05 05:57:43;;;;;;;37.13;22.38;;;16.10;99.90;;;;;;4939490;29;20094;-72
2022/09/05 06:00:34;;;;;;;39.67;22.45;;;16.10;99.90;;;;;;4939086;29;20055;-73
2022/09/05 06:03:50;;;;;;;47.05;24.23;;;16.10;99.90;;;;;;4939343;29;20091;-70
2022/09/05 06:06:35;;;;;;;44.00;23.50;;;16.20;99.90;;;;;;4910740;29;20066;-77
2022/09/05 06:09:20;;;;;;;42.35;23.42;;;16.20;99.90;;;;;;4938386;29;20058;-71
2022/09/05 06:12:20;;;;;;;42.42;24.02;;;16.20;99.90;;;;;;4938486;29;20059;-71
2022/09/05 06:14:58;;;;;;;41.13;23.67;;;16.30;99.90;;;;;;4955859;29;20504;-71
2022/09/05 06:17:36;;;;;;;42.95;24.75;;;16.30;99.90;;;;;;4938716;29;20086;-73
2022/09/05 06:20:31;;;;;;;38.35;23.63;;;16.30;99.90;;;;;;4939263;29;20097;-70
2022/09/05 06:23:15;;;;;;;47.17;26.00;;;16.40;99.90;;;;;;4955574;29;20051;-71
2022/09/05 06:26:06;;;;;;;45.00;25.27;;;16.50;99.90;;;;;;4955652;29;20093;-71
2022/09/05 06:28:38;;;;;;;41.47;24.52;;;16.50;99.90;;;;;;4955393;29;20061;-71
2022/09/05 06:31:29;;;;;;;43.50;24.92;;;16.60;99.90;;;;;;4955251;29;20047;-74
2022/09/05 06:34:10;;;;;;;49.00;25.52;;;16.70;99.90;;;;;;4955320;29;20051;-72
2022/09/05 06:36:53;;;;;;;45.42;25.85;;;16.80;99.90;;;;;;4956316;29;20352;-72
2022/09/05 06:39:40;;;;;;;47.88;26.35;;;17.00;99.90;;;;;;4955812;29;20050;-71
2022/09/05 06:42:55;;;;;;;45.45;26.02;;;17.10;99.90;;;;;;4938475;29;20050;-71
2022/09/05 06:45:29;;;;;;;45.05;24.65;;;17.20;99.90;;;;;;4955564;29;20069;-71
2022/09/05 06:48:06;;;;;;;43.38;25.60;;;17.30;99.90;;;;;;4955199;28;20052;-71
2022/09/05 06:50:57;;;;;;;42.83;24.75;;;17.50;99.90;;;;;;4955223;29;20050;-72
2022/09/05 06:53:37;;;;;;;42.03;25.02;;;17.60;99.90;;;;;;4938370;29;20150;-72
2022/09/05 06:56:18;;;;;;;45.05;25.27;;;17.70;99.90;;;;;;4938688;29;20047;-72
2022/09/05 06:59:08;;;;;;;46.53;25.50;;;17.80;99.90;;;;;;4955530;29;20130;-73
2022/09/05 07:01:50;;;;;;;44.42;25.45;;;17.80;99.90;;;;;;4954846;29;20050;-71
2022/09/05 07:04:27;;;;;;;42.90;25.02;;;17.90;99.90;;;;;;4955061;29;20043;-71
2022/09/05 07:07:18;;;;;;;43.15;25.55;;;18.10;99.90;;;;;;4937724;29;20043;-84
2022/09/05 07:10:03;;;;;;;45.78;26.48;;;18.30;99.90;;;;;;4937440;29;20123;-71
2022/09/05 07:12:42;;;;;;;42.97;25.15;;;18.40;99.90;;;;;;4937621;29;20561;-71
2022/09/05 07:15:11;;;;;;;44.50;27.33;;;18.50;99.90;;;;;;4938317;29;20055;-75
2022/09/05 07:18:13;;;;;;;46.40;25.80;;;18.70;99.90;;;;;;4954545;29;20392;-72
2022/09/05 07:21:00;;;;;;;47.90;25.42;;;18.90;99.90;;;;;;4921991;29;20051;-72
2022/09/05 07:23:44;;;;;;;39.92;24.67;;;19.10;99.90;;;;;;4937429;29;20492;-72
2022/09/05 07:26:11;;;;;;;41.30;24.30;;;19.40;99.90;;;;;;4937496;29;20425;-72
2022/09/05 07:28:42;;;;;;;43.33;24.27;;;19.50;99.90;;;;;;4937664;29;20051;-71
2022/09/05 07:31:20;;;;;;;38.53;24.33;;;19.70;99.70;;;;;;4954593;29;20051;-72
2022/09/05 07:33:47;;;;;;;56.70;25.58;;;19.80;99.50;;;;;;4955356;29;20051;-71
2022/09/05 07:36:24;;;;;;;44.92;25.48;;;20.00;99.50;;;;;;4937317;29;20099;-71
2022/09/05 07:38:56;;;;;;;42.65;25.27;;;20.10;99.30;;;;;;4954378;29;20130;-77
2022/09/05 07:41:32;;;;;;;41.95;24.45;;;20.20;99.00;;;;;;4937941;29;20106;-71
2022/09/05 07:44:35;;;;;;;39.83;23.75;;;20.40;99.00;;;;;;4937242;29;20050;-71
2022/09/05 07:47:07;;;;;;;45.00;24.65;;;20.50;98.80;;;;;;4935022;29;20392;-73
2022/09/05 07:49:35;;;;;;;42.25;24.42;;;20.60;98.50;;;;;;4954433;29;20114;-72
2022/09/05 07:52:17;;;;;;;40.75;24.98;;;20.70;98.50;;;;;;4954395;29;20051;-72
2022/09/05 07:54:45;;;;;;;38.53;23.70;;;20.70;98.30;;;;;;4937348;29;20056;-73
2022/09/05 07:57:23;;;;;;;46.40;25.08;;;20.80;98.30;;;;;;4954871;29;20073;-72
2022/09/05 07:59:53;;;;;;;42.95;25.05;;;20.90;97.80;;;;;;4954682;28;20047;-73
2022/09/05 08:02:19;;;;;;;44.95;24.52;;;20.90;97.50;;;;;;4954561;29;20043;-71
2022/09/05 08:04:45;;;;;;;41.73;24.53;;;20.90;97.70;;;;;;4954156;29;20058;-72
2022/09/05 08:07:25;;;;;;;41.88;24.38;;;21.00;97.80;;;;;;4954775;29;20134;-72
2022/09/05 08:09:55;;;;;;;48.63;25.75;;;21.10;97.80;;;;;;4936535;29;20070;-71
2022/09/05 08:12:36;;;;;;;42.08;25.33;;;21.10;97.80;;;;;;4954018;29;20058;-72
2022/09/05 08:15:13;;;;;;;39.15;24.15;;;21.20;97.70;;;;;;4954612;29;20091;-72
2022/09/05 08:17:49;;;;;;;45.97;25.67;;;21.30;97.70;;;;;;4937518;29;20110;-71
2022/09/05 08:20:30;;;;;;;42.33;24.90;;;21.50;97.50;;;;;;4954403;29;20089;-73
2022/09/05 08:23:04;;;;;;;38.83;23.70;;;21.60;97.50;;;;;;4954001;29;20091;-72
2022/09/05 08:25:55;;;;;;;39.53;23.15;;;21.70;97.40;;;;;;4953265;28;20106;-71
2022/09/05 08:28:35;;;;;;;40.72;23.77;;;21.80;97.40;;;;;;4953687;28;20051;-72
2022/09/05 08:31:09;;;;;;;38.80;23.30;;;21.90;97.30;;;;;;4954038;29;20623;-72
2022/09/05 08:33:36;;;;;;;44.22;24.20;;;22.00;97.30;;;;;;4937027;29;20055;-74
2022/09/05 08:36:14;;;;;;;;;;;22.00;97.30;;;;;;4956388;28;20059;-71
2022/09/05 08:38:42;;;;;;;42.63;23.95;;;22.20;97.30;;;;;;4941030;29;19922;-72
2022/09/05 08:41:28;;;;;;;41.80;23.15;;;22.40;96.40;;;;;;4924375;29;20083;-72
2022/09/05 08:44:15;;;;;;;45.60;25.20;;;22.50;96.30;;;;;;4957576;29;20477;-71
2022/09/05 08:46:59;;;;;;;40.55;22.83;;;22.60;96.20;;;;;;4924039;29;20063;-72
2022/09/05 08:49:48;;;;;;;42.80;24.05;;;22.60;96.30;;;;;;4940502;29;20054;-70
2022/09/05 08:52:27;;;;;;;38.53;23.25;;;22.70;95.90;;;;;;4934462;29;20353;-72
2022/09/05 08:55:14;;;;;;;43.97;22.33;;;22.90;96.10;;;;;;4940131;29;20456;-73
2022/09/05 08:57:59;;;;;;;41.47;22.77;;;22.90;96.00;;;;;;4939930;29;20101;-71
2022/09/05 09:00:31;;;;;;;51.00;21.85;;;23.10;96.00;;;;;;4940706;29;20051;-72
2022/09/05 09:03:09;;;;;;;41.58;21.50;;;23.20;95.90;;;;;;4957594;29;20358;-72
2022/09/05 09:05:49;;;;;;;42.30;22.75;;;23.40;95.50;;;;;;4924788;29;20095;-72
2022/09/05 09:08:19;;;;;;;38.67;22.10;;;23.40;94.90;;;;;;4940245;29;20118;-72
2022/09/05 09:11:04;;;;;;;35.83;20.90;;;23.40;95.30;;;;;;4939498;29;20086;-72
2022/09/05 09:14:04;;;;;;;38.00;21.38;;;23.50;95.00;;;;;;4939609;29;20087;-72
2022/09/05 09:16:53;;;;;;;42.05;20.55;;;23.60;95.10;;;;;;4957154;29;20051;-71
2022/09/05 09:19:24;;;;;;;37.28;20.95;;;23.70;94.90;;;;;;4956564;29;20102;-71
2022/09/05 09:22:13;;;;;;;44.72;21.13;;;23.80;95.00;;;;;;4957343;29;20050;-73
2022/09/05 09:24:46;;;;;;;37.28;20.25;;;23.90;94.30;;;;;;4956440;29;20110;-71
2022/09/05 09:27:43;;;;;;;35.05;18.70;;;23.90;94.20;;;;;;4938929;29;20162;-72
2022/09/05 09:30:11;;;;;;;38.15;22.33;;;24.10;94.20;;;;;;4956334;29;20130;-71
2022/09/05 09:32:44;;;;;;;41.58;20.08;;;24.20;93.80;;;;;;4956259;29;20163;-71
2022/09/05 09:35:47;;;;;;;33.00;20.50;;;24.30;93.50;;;;;;4923321;29;20128;-71
2022/09/05 09:38:25;;;;;;;36.78;19.75;;;24.40;93.50;;;;;;4909185;29;20063;-72
2022/09/05 09:41:02;;;;;;;36.58;19.85;;;24.40;93.30;;;;;;4956366;29;20046;-73
2022/09/05 09:43:47;;;;;;;40.53;18.75;;;24.60;92.60;;;;;;4939371;29;20047;-72
2022/09/05 09:46:43;;;;;;;41.85;18.98;;;24.60;92.90;;;;;;4956413;28;20051;-73
2022/09/05 09:49:22;;;;;;;;;;;24.70;92.90;;;;;;4956874;29;20044;-74
2022/09/05 09:52:20;;;;;;;32.05;18.10;;;24.90;92.90;;;;;;4956149;29;19929;-75
2022/09/05 09:55:17;;;;;;;44.63;18.60;;;25.00;92.40;;;;;;4935902;29;20475;-74
2022/09/05 09:57:44;;;;;;;28.75;17.65;;;25.00;92.40;;;;;;4938745;29;20048;-70
2022/09/05 10:00:21;;;;;;;35.10;15.77;;;25.10;92.10;;;;;;4955806;28;20428;-72
2022/09/05 10:03:34;;;;;;;34.65;16.65;;;25.20;92.00;;;;;;4955492;28;20368;-72
2022/09/05 10:06:03;;;;;;;32.08;15.73;;;25.40;90.70;;;;;;4933480;29;20055;-73
2022/09/05 10:08:41;;;;;;;26.63;15.30;;;25.40;91.40;;;;;;4955590;29;20365;-74
2022/09/05 10:11:38;;;;;;;26.15;14.70;;;25.50;91.70;;;;;;4938567;29;20142;-71
2022/09/05 10:14:28;;;;;;;22.02;14.15;;;25.60;91.40;;;;;;4956437;29;20388;-72
2022/09/05 10:17:35;;;;;;;21.73;13.30;;;25.70;91.10;;;;;;4938806;29;20387;-72
2022/09/05 10:20:06;;;;;;;23.98;12.85;;;25.70;90.50;;;;;;4955467;29;20193;-74
2022/09/05 10:22:41;;;;;;;28.23;15.20;;;25.70;90.70;;;;;;4938592;29;20474;-73
2022/09/05 10:25:19;;;;;;;24.50;13.35;;;25.70;90.20;;;;;;4922768;29;20051;-73
2022/09/05 10:28:30;;;;;;;22.13;14.02;;;25.70;90.30;;;;;;4956121;29;20066;-72
2022/09/05 10:31:12;;;;;;;22.85;13.10;;;25.80;90.00;;;;;;4952435;29;20124;-80
2022/09/05 10:34:17;;;;;;;23.13;11.88;;;25.90;89.10;;;;;;4939264;29;20051;-73
2022/09/05 10:37:01;;;;;;;23.92;11.40;;;26.00;89.80;;;;;;4956168;29;20047;-73
2022/09/05 10:39:37;;;;;;;22.95;10.85;;;26.10;89.00;;;;;;4938746;29;20047;-73
2022/09/05 10:42:24;;;;;;;30.45;12.23;;;26.30;86.60;;;;;;4922531;29;20051;-73
2022/09/05 10:44:56;;;;;;;19.77;11.70;;;26.20;87.00;;;;;;4956131;29;20054;-73
2022/09/05 10:47:25;;;;;;;20.80;10.98;;;26.30;86.80;;;;;;4955590;29;20473;-72
2022/09/05 10:50:06;;;;;;;26.10;11.68;;;26.40;85.80;;;;;;4937982;29;20408;-71
2022/09/05 10:53:18;;;;;;;19.63;10.85;;;26.50;85.10;;;;;;4955090;29;20093;-73
2022/09/05 10:56:09;;;;;;;26.42;12.27;;;26.50;85.90;;;;;;4955073;29;20051;-73
2022/09/05 10:58:44;;;;;;;23.05;11.35;;;26.50;85.80;;;;;;4954506;28;20166;-74
2022/09/05 11:01:34;;;;;;;22.42;10.73;;;26.60;85.40;;;;;;4955366;29;20051;-75
2022/09/05 11:04:42;;;;;;;19.48;10.15;;;26.70;85.80;;;;;;4922215;29;20055;-76
2022/09/05 11:07:30;;;;;;;21.77;9.85;;;26.80;84.50;;;;;;4954009;28;20047;-74
2022/09/05 11:10:19;;;;;;;19.70;8.85;;;26.80;83.80;;;;;;4937397;29;20428;-74
2022/09/05 11:13:04;;;;;;;20.55;8.90;;;27.00;81.90;;;;;;4938520;29;20051;-72
2022/09/05 11:15:41;;;;;;;14.77;8.10;;;26.90;82.80;;;;;;4922476;29;20457;-72
2022/09/05 11:18:15;;;;;;;18.25;8.23;;;26.90;82.60;;;;;;4937994;29;20135;-73
2022/09/05 11:21:11;;;;;;;18.13;8.40;;;27.00;82.70;;;;;;4938181;29;20077;-71
2022/09/05 11:23:44;;;;;;;17.95;9.32;;;27.00;80.80;;;;;;4919638;29;20059;-72
2022/09/05 11:26:41;;;;;;;16.45;10.10;;;27.20;80.60;;;;;;4954952;29;20444;-73
2022/09/05 11:29:46;;;;;;;16.30;9.82;;;27.20;80.80;;;;;;4949766;28;20059;-72
2022/09/05 11:32:50;;;;;;;16.27;9.32;;;27.20;80.10;;;;;;4953375;28;20056;-72
2022/09/05 11:35:32;;;;;;;14.38;8.20;;;27.30;80.90;;;;;;4921861;29;20484;-72
2022/09/05 11:37:58;;;;;;;16.25;8.93;;;27.40;80.60;;;;;;4954597;29;20219;-76
2022/09/05 11:40:42;;;;;;;11.50;7.72;;;27.50;79.80;;;;;;4954443;29;20083;-72
2022/09/05 11:43:29;;;;;;;13.52;8.10;;;27.80;77.30;;;;;;4937414;29;20047;-71
2022/09/05 11:46:23;;;;;;;17.83;8.65;;;28.00;75.50;;;;;;4937130;29;20051;-81
2022/09/05 11:49:13;;;;;;;17.60;7.93;;;28.10;75.20;;;;;;4937475;29;20054;-78
2022/09/05 11:51:42;;;;;;;14.60;8.82;;;28.00;76.50;;;;;;4938060;29;20055;-71
2022/09/05 11:54:39;;;;;;;14.48;7.93;;;27.90;75.00;;;;;;4937233;29;20058;-71
2022/09/05 11:57:30;;;;;;;14.25;8.55;;;28.00;75.50;;;;;;4921232;29;20134;-71
2022/09/05 12:00:11;;;;;;;12.68;8.07;;;28.00;75.80;;;;;;4954334;29;20103;-71
2022/09/05 12:03:02;;;;;;;16.05;7.55;;;28.00;75.60;;;;;;4937148;29;20047;-73
2022/09/05 12:05:39;;;;;;;11.52;6.18;;;28.20;75.70;;;;;;4954782;29;20047;-71
2022/09/05 12:08:23;;;;;;;25.50;5.95;;;28.40;74.00;;;;;;4954207;29;20120;-70
2022/09/05 12:10:58;;;;;;;9.95;5.72;;;28.50;73.90;;;;;;4956384;28;20182;-70
2022/09/05 12:13:43;;;;;;;10.68;6.15;;;28.50;73.10;;;;;;4940599;29;20495;-73
2022/09/05 12:16:53;;;;;;;18.58;5.97;;;28.40;73.30;;;;;;4958145;29;20403;-71
2022/09/05 12:19:22;;;;;;;13.02;5.90;;;28.50;71.90;;;;;;4941165;29;20059;-72
2022/09/05 12:22:01;;;;;;;14.55;6.40;;;28.50;71.70;;;;;;4957703;29;20047;-71
2022/09/05 12:24:27;;;;;;;16.33;7.35;;;28.50;72.50;;;;;;4957470;29;20062;-71
2022/09/05 12:27:14;;;;;;;11.60;6.18;;;28.50;73.00;;;;;;4940642;29;20113;-77
2022/09/05 12:29:45;;;;;;;9.95;6.10;;;28.60;72.50;;;;;;4957537;29;20039;-71
2022/09/05 12:32:19;;;;;;;11.68;6.35;;;28.60;73.00;;;;;;4940390;29;20047;-72
2022/09/05 12:34:58;;;;;;;12.15;5.28;;;28.60;71.90;;;;;;4957169;29;20047;-72
2022/09/05 12:37:36;;;;;;;9.35;5.60;;;28.70;71.40;;;;;;4940145;29;20043;-79
2022/09/05 12:40:09;;;;;;;12.50;5.55;;;28.70;69.60;;;;;;4957230;29;20039;-71
2022/09/05 12:42:58;;;;;;;11.50;5.72;;;28.70;67.80;;;;;;4940071;29;20051;-72
2022/09/05 12:45:46;;;;;;;8.35;5.55;;;28.90;68.80;;;;;;4940633;29;20051;-71
2022/09/05 12:48:37;;;;;;;16.02;5.55;;;29.00;70.60;;;;;;4957422;29;20452;-71
2022/09/05 12:51:14;;;;;;;10.73;5.70;;;29.00;69.00;;;;;;4957136;29;20040;-73
2022/09/05 12:54:05;;;;;;;10.18;5.28;;;29.00;69.60;;;;;;4957730;29;20432;-78
2022/09/05 12:56:58;;;;;;;11.60;5.30;;;29.00;69.50;;;;;;4957272;29;20094;-72
2022/09/05 12:59:27;;;;;;;8.90;5.47;;;29.00;68.40;;;;;;4940291;29;20048;-71
2022/09/05 13:02:02;;;;;;;10.35;5.47;;;29.00;68.50;;;;;;4939976;29;20051;-71
2022/09/05 13:04:40;;;;;;;8.43;5.40;;;29.00;66.90;;;;;;4940653;29;20046;-72
2022/09/05 13:07:17;;;;;;;10.35;5.60;;;28.80;66.60;;;;;;4940309;29;20070;-71
2022/09/05 13:09:55;;;;;;;11.27;5.45;;;28.90;68.60;;;;;;4939461;29;20052;-73
2022/09/05 13:12:36;;;;;;;9.95;5.07;;;28.90;68.50;;;;;;4940081;28;20047;-71
2022/09/05 13:15:11;;;;;;;9.55;5.90;;;29.00;67.70;;;;;;4957129;29;20043;-79
2022/09/05 13:18:21;;;;;;;11.80;5.30;;;28.90;68.10;;;;;;4923949;29;20053;-72
2022/09/05 13:21:06;;;;;;;12.93;5.05;;;29.00;68.50;;;;;;4881541;29;20104;-74
2022/09/05 13:23:40;;;;;;;7.95;4.80;;;29.00;66.90;;;;;;4939088;29;20058;-73
2022/09/05 13:26:24;;;;;;;9.10;5.47;;;29.00;67.60;;;;;;4923705;29;20054;-73
2022/09/05 13:28:57;;;;;;;8.18;4.85;;;29.00;68.00;;;;;;4923874;29;20447;-72
2022/09/05 13:31:41;;;;;;;10.27;5.25;;;29.10;67.70;;;;;;4939412;29;20050;-73
2022/09/05 13:34:16;;;;;;;9.80;5.20;;;29.10;65.60;;;;;;4956447;29;20051;-72
2022/09/05 13:36:55;;;;;;;9.47;4.60;;;28.90;68.50;;;;;;4939748;29;20424;-72
2022/09/05 13:39:27;;;;;;;9.98;5.20;;;28.80;68.20;;;;;;4939461;29;20047;-72
2022/09/05 13:42:02;;;;;;;10.23;5.35;;;28.70;68.60;;;;;;4923764;29;20058;-72
2022/09/05 13:44:35;;;;;;;11.63;5.28;;;28.60;68.70;;;;;;4956856;29;20058;-73
2022/09/05 13:47:15;;;;;;;9.07;4.82;;;28.40;68.80;;;;;;4938904;29;20080;-73
2022/09/05 13:49:50;;;;;;;10.68;5.40;;;28.40;69.40;;;;;;4956153;29;20082;-72